sensor_id;sensor_type;location;lat;lon;timestamp;temperature;humidity
17240;DHT22;9943;54.378;18.604;2022-12-20T00:01:50;2.70;99.90
17240;DHT22;9943;54.378;18.604;2022-12-20T00:04:19;2.80;99.90
17240;DHT22;9943;54.378;18.604;2022-12-20T00:06:47;2.60;99.90
17240;DHT22;9943;54.378;18.604;2022-12-20T00:09:15;2.80;99.90
17240;DHT22;9943;54.378;18.604;2022-12-20T00:11:42;2.90;99.90
17240;DHT22;9943;54.378;18.604;2022-12-20T00:14:12;2.90;99.90
17240;DHT22;9943;54.378;18.604;2022-12-20T00:16:41;2.80;99.90
17240;DHT22;9943;54.378;18.604;2022-12-20T00:19:09;3.00;99.90
17240;DHT22;9943;54.378;18.604;2022-12-20T00:21:38;3.10;99.90
17240;DHT22;9943;54.378;18.604;2022-12-20T00:24:08;3.20;99.90
17240;DHT22;9943;54.378;18.604;2022-12-20T00:26:38;3.10;99.90
17240;DHT22;9943;54.378;18.604;2022-12-20T00:29:06;3.10;99.90
17240;DHT22;9943;54.378;18.604;2022-12-20T00:31:34;3.30;99.90
17240;DHT22;9943;54.378;18.604;2022-12-20T00:34:02;3.20;99.90
17240;DHT22;9943;54.378;18.604;2022-12-20T00:36:30;3.30;99.90
17240;DHT22;9943;54.378;18.604;2022-12-20T00:39:00;3.20;99.90
17240;DHT22;9943;54.378;18.604;2022-12-20T00:41:29;3.40;99.90
17240;DHT22;9943;54.378;18.604;2022-12-20T00:43:57;3.50;99.90
17240;DHT22;9943;54.378;18.604;2022-12-20T00:46:25;3.50;99.90
17240;DHT22;9943;54.378;18.604;2022-12-20T00:48:55;3.60;99.90
17240;DHT22;9943;54.378;18.604;2022-12-20T00:51:24;3.50;99.90
17240;DHT22;9943;54.378;18.604;2022-12-20T00:53:52;3.60;99.90
17240;DHT22;9943;54.378;18.604;2022-12-20T00:56:22;3.60;99.90
17240;DHT22;9943;54.378;18.604;2022-12-20T00:58:49;3.60;99.90
17240;DHT22;9943;54.378;18.604;2022-12-20T01:01:21;3.60;99.90
17240;DHT22;9943;54.378;18.604;2022-12-20T01:03:49;3.50;99.90
17240;DHT22;9943;54.378;18.604;2022-12-20T01:06:18;3.60;99.90
17240;DHT22;9943;54.378;18.604;2022-12-20T01:08:48;3.60;99.90
17240;DHT22;9943;54.378;18.604;2022-12-20T01:11:18;3.70;99.90
17240;DHT22;9943;54.378;18.604;2022-12-20T01:13:50;3.80;99.90
17240;DHT22;9943;54.378;18.604;2022-12-20T01:16:22;3.80;99.90
17240;DHT22;9943;54.378;18.604;2022-12-20T01:18:50;3.90;99.90
17240;DHT22;9943;54.378;18.604;2022-12-20T01:21:19;3.90;99.90
17240;DHT22;9943;54.378;18.604;2022-12-20T01:23:47;3.90;99.90
17240;DHT22;9943;54.378;18.604;2022-12-20T01:26:17;3.80;99.90
17240;DHT22;9943;54.378;18.604;2022-12-20T01:28:52;3.90;99.90
17240;DHT22;9943;54.378;18.604;2022-12-20T01:31:20;3.90;99.90
17240;DHT22;9943;54.378;18.604;2022-12-20T01:33:49;4.00;99.90
17240;DHT22;9943;54.378;18.604;2022-12-20T01:36:19;4.00;99.90
17240;DHT22;9943;54.378;18.604;2022-12-20T01:38:47;4.00;99.90
17240;DHT22;9943;54.378;18.604;2022-12-20T01:41:16;4.10;99.90
17240;DHT22;9943;54.378;18.604;2022-12-20T01:43:46;4.20;99.90
17240;DHT22;9943;54.378;18.604;2022-12-20T01:46:16;4.10;99.90
17240;DHT22;9943;54.378;18.604;2022-12-20T01:48:49;4.20;99.90
17240;DHT22;9943;54.378;18.604;2022-12-20T01:51:19;4.00;99.90
17240;DHT22;9943;54.378;18.604;2022-12-20T01:53:50;4.20;99.90
17240;DHT22;9943;54.378;18.604;2022-12-20T01:56:19;4.20;99.90
17240;DHT22;9943;54.378;18.604;2022-12-20T01:58:48;4.30;99.90
17240;DHT22;9943;54.378;18.604;2022-12-20T02:01:19;4.30;99.90
17240;DHT22;9943;54.378;18.604;2022-12-20T02:03:49;4.30;99.90
17240;DHT22;9943;54.378;18.604;2022-12-20T02:06:21;4.10;99.90
17240;DHT22;9943;54.378;18.604;2022-12-20T02:08:51;4.20;99.90
17240;DHT22;9943;54.378;18.604;2022-12-20T02:11:45;4.20;99.90
17240;DHT22;9943;54.378;18.604;2022-12-20T02:14:32;4.30;99.90
17240;DHT22;9943;54.378;18.604;2022-12-20T02:17:08;4.50;99.90
17240;DHT22;9943;54.378;18.604;2022-12-20T02:20:01;4.40;99.90
17240;DHT22;9943;54.378;18.604;2022-12-20T02:22:43;4.30;99.90
17240;DHT22;9943;54.378;18.604;2022-12-20T02:25:35;4.30;99.90
17240;DHT22;9943;54.378;18.604;2022-12-20T02:28:14;4.30;99.90
17240;DHT22;9943;54.378;18.604;2022-12-20T02:30:51;4.50;99.90
17240;DHT22;9943;54.378;18.604;2022-12-20T02:33:21;4.50;99.90
17240;DHT22;9943;54.378;18.604;2022-12-20T02:35:51;4.50;99.90
17240;DHT22;9943;54.378;18.604;2022-12-20T02:38:28;4.50;99.90
17240;DHT22;9943;54.378;18.604;2022-12-20T02:41:00;4.50;99.90
17240;DHT22;9943;54.378;18.604;2022-12-20T02:43:32;4.40;99.90
17240;DHT22;9943;54.378;18.604;2022-12-20T02:46:21;4.30;99.90
17240;DHT22;9943;54.378;18.604;2022-12-20T02:48:52;4.30;99.90
17240;DHT22;9943;54.378;18.604;2022-12-20T02:51:22;4.30;99.90
17240;DHT22;9943;54.378;18.604;2022-12-20T02:53:52;4.30;99.90
17240;DHT22;9943;54.378;18.604;2022-12-20T02:56:26;4.30;99.90
17240;DHT22;9943;54.378;18.604;2022-12-20T02:59:00;4.30;99.90
17240;DHT22;9943;54.378;18.604;2022-12-20T03:01:33;4.40;99.90
17240;DHT22;9943;54.378;18.604;2022-12-20T03:04:03;4.40;99.90
17240;DHT22;9943;54.378;18.604;2022-12-20T03:06:31;4.40;99.90
17240;DHT22;9943;54.378;18.604;2022-12-20T03:08:58;4.40;99.90
17240;DHT22;9943;54.378;18.604;2022-12-20T03:11:26;4.40;99.90
17240;DHT22;9943;54.378;18.604;2022-12-20T03:13:54;4.30;99.90
17240;DHT22;9943;54.378;18.604;2022-12-20T03:16:22;4.40;99.90
17240;DHT22;9943;54.378;18.604;2022-12-20T03:18:51;4.40;99.90
17240;DHT22;9943;54.378;18.604;2022-12-20T03:21:19;4.50;99.90
17240;DHT22;9943;54.378;18.604;2022-12-20T03:23:47;4.50;99.90
17240;DHT22;9943;54.378;18.604;2022-12-20T03:26:17;4.50;99.90
17240;DHT22;9943;54.378;18.604;2022-12-20T03:28:44;4.60;99.90
17240;DHT22;9943;54.378;18.604;2022-12-20T03:31:14;4.70;99.90
17240;DHT22;9943;54.378;18.604;2022-12-20T03:33:42;4.80;99.90
17240;DHT22;9943;54.378;18.604;2022-12-20T03:36:11;4.70;99.90
17240;DHT22;9943;54.378;18.604;2022-12-20T03:38:43;4.60;99.90
17240;DHT22;9943;54.378;18.604;2022-12-20T03:41:31;4.50;99.90
17240;DHT22;9943;54.378;18.604;2022-12-20T03:43:59;4.40;99.90
17240;DHT22;9943;54.378;18.604;2022-12-20T03:46:29;4.40;99.90
17240;DHT22;9943;54.378;18.604;2022-12-20T03:48:57;4.50;99.90
17240;DHT22;9943;54.378;18.604;2022-12-20T03:51:26;4.50;99.90
17240;DHT22;9943;54.378;18.604;2022-12-20T03:53:56;4.50;99.90
17240;DHT22;9943;54.378;18.604;2022-12-20T03:56:24;4.50;99.90
17240;DHT22;9943;54.378;18.604;2022-12-20T03:58:52;4.60;99.90
17240;DHT22;9943;54.378;18.604;2022-12-20T04:01:21;4.60;99.90
17240;DHT22;9943;54.378;18.604;2022-12-20T04:03:49;4.60;99.90
17240;DHT22;9943;54.378;18.604;2022-12-20T04:06:17;4.50;99.90
17240;DHT22;9943;54.378;18.604;2022-12-20T04:08:47;4.50;99.90
17240;DHT22;9943;54.378;18.604;2022-12-20T04:11:14;4.50;99.90
17240;DHT22;9943;54.378;18.604;2022-12-20T04:13:42;4.50;99.90
17240;DHT22;9943;54.378;18.604;2022-12-20T04:16:10;4.50;99.90
17240;DHT22;9943;54.378;18.604;2022-12-20T04:18:38;4.60;99.90
17240;DHT22;9943;54.378;18.604;2022-12-20T04:21:11;4.60;99.90
17240;DHT22;9943;54.378;18.604;2022-12-20T04:23:41;4.60;99.90
17240;DHT22;9943;54.378;18.604;2022-12-20T04:26:11;4.50;99.90
17240;DHT22;9943;54.378;18.604;2022-12-20T04:28:38;4.60;99.90
17240;DHT22;9943;54.378;18.604;2022-12-20T04:31:06;4.60;99.90
17240;DHT22;9943;54.378;18.604;2022-12-20T04:33:33;4.60;99.90
17240;DHT22;9943;54.378;18.604;2022-12-20T04:36:01;4.70;99.90
17240;DHT22;9943;54.378;18.604;2022-12-20T04:38:31;4.80;99.90
17240;DHT22;9943;54.378;18.604;2022-12-20T04:41:00;4.80;99.90
17240;DHT22;9943;54.378;18.604;2022-12-20T04:43:32;4.80;99.90
17240;DHT22;9943;54.378;18.604;2022-12-20T04:45:59;4.80;99.90
17240;DHT22;9943;54.378;18.604;2022-12-20T04:48:27;4.80;99.90
17240;DHT22;9943;54.378;18.604;2022-12-20T04:50:57;4.80;99.90
17240;DHT22;9943;54.378;18.604;2022-12-20T04:53:25;4.80;99.90
17240;DHT22;9943;54.378;18.604;2022-12-20T04:56:10;4.80;99.90
17240;DHT22;9943;54.378;18.604;2022-12-20T04:58:40;4.80;99.90
17240;DHT22;9943;54.378;18.604;2022-12-20T05:01:08;4.90;99.90
17240;DHT22;9943;54.378;18.604;2022-12-20T05:03:36;4.90;99.90
17240;DHT22;9943;54.378;18.604;2022-12-20T05:06:04;4.90;99.90
17240;DHT22;9943;54.378;18.604;2022-12-20T05:08:34;4.90;99.90
17240;DHT22;9943;54.378;18.604;2022-12-20T05:11:03;5.00;99.90
17240;DHT22;9943;54.378;18.604;2022-12-20T05:13:32;5.00;99.90
17240;DHT22;9943;54.378;18.604;2022-12-20T05:16:01;5.00;99.90
17240;DHT22;9943;54.378;18.604;2022-12-20T05:18:29;5.00;99.90
17240;DHT22;9943;54.378;18.604;2022-12-20T05:20:58;5.00;99.90
17240;DHT22;9943;54.378;18.604;2022-12-20T05:23:43;5.00;99.90
17240;DHT22;9943;54.378;18.604;2022-12-20T05:26:31;5.10;99.90
17240;DHT22;9943;54.378;18.604;2022-12-20T05:28:59;5.10;99.90
17240;DHT22;9943;54.378;18.604;2022-12-20T05:31:29;5.10;99.90
17240;DHT22;9943;54.378;18.604;2022-12-20T05:33:58;5.10;99.90
17240;DHT22;9943;54.378;18.604;2022-12-20T05:36:25;5.10;99.90
17240;DHT22;9943;54.378;18.604;2022-12-20T05:38:53;5.10;99.90
17240;DHT22;9943;54.378;18.604;2022-12-20T05:41:21;5.10;99.90
17240;DHT22;9943;54.378;18.604;2022-12-20T05:43:48;5.20;99.90
17240;DHT22;9943;54.378;18.604;2022-12-20T05:46:16;5.20;99.90
17240;DHT22;9943;54.378;18.604;2022-12-20T05:48:45;5.20;99.90
17240;DHT22;9943;54.378;18.604;2022-12-20T05:51:14;5.20;99.90
17240;DHT22;9943;54.378;18.604;2022-12-20T05:53:41;5.20;99.90
17240;DHT22;9943;54.378;18.604;2022-12-20T05:56:09;5.20;99.90
17240;DHT22;9943;54.378;18.604;2022-12-20T05:58:37;5.20;99.90
17240;DHT22;9943;54.378;18.604;2022-12-20T06:01:07;5.20;99.90
17240;DHT22;9943;54.378;18.604;2022-12-20T06:03:38;5.40;99.90
17240;DHT22;9943;54.378;18.604;2022-12-20T06:06:08;5.30;99.90
17240;DHT22;9943;54.378;18.604;2022-12-20T06:08:35;5.40;99.90
17240;DHT22;9943;54.378;18.604;2022-12-20T06:11:03;5.40;99.90
17240;DHT22;9943;54.378;18.604;2022-12-20T06:13:32;5.30;99.90
17240;DHT22;9943;54.378;18.604;2022-12-20T06:16:00;5.20;99.90
17240;DHT22;9943;54.378;18.604;2022-12-20T06:18:29;5.20;99.90
17240;DHT22;9943;54.378;18.604;2022-12-20T06:20:57;5.20;99.90
17240;DHT22;9943;54.378;18.604;2022-12-20T06:23:26;5.10;99.90
17240;DHT22;9943;54.378;18.604;2022-12-20T06:25:56;5.20;99.90
17240;DHT22;9943;54.378;18.604;2022-12-20T06:28:24;5.10;99.90
17240;DHT22;9943;54.378;18.604;2022-12-20T06:30:52;5.10;99.90
17240;DHT22;9943;54.378;18.604;2022-12-20T06:33:22;5.10;99.90
17240;DHT22;9943;54.378;18.604;2022-12-20T06:35:51;5.10;99.90
17240;DHT22;9943;54.378;18.604;2022-12-20T06:38:18;5.10;99.90
17240;DHT22;9943;54.378;18.604;2022-12-20T06:40:50;5.10;99.90
17240;DHT22;9943;54.378;18.604;2022-12-20T06:43:17;5.10;99.90
17240;DHT22;9943;54.378;18.604;2022-12-20T06:45:45;5.00;99.90
17240;DHT22;9943;54.378;18.604;2022-12-20T06:48:13;5.00;99.90
17240;DHT22;9943;54.378;18.604;2022-12-20T06:50:40;5.00;99.90
17240;DHT22;9943;54.378;18.604;2022-12-20T06:53:08;5.00;99.90
17240;DHT22;9943;54.378;18.604;2022-12-20T06:55:35;5.00;99.90
17240;DHT22;9943;54.378;18.604;2022-12-20T06:58:04;5.10;99.90
17240;DHT22;9943;54.378;18.604;2022-12-20T07:00:33;5.10;99.90
17240;DHT22;9943;54.378;18.604;2022-12-20T07:03:00;5.10;99.90
17240;DHT22;9943;54.378;18.604;2022-12-20T07:05:28;5.20;99.90
17240;DHT22;9943;54.378;18.604;2022-12-20T07:07:56;5.10;99.90
17240;DHT22;9943;54.378;18.604;2022-12-20T07:10:24;5.10;99.90
17240;DHT22;9943;54.378;18.604;2022-12-20T07:12:52;5.10;99.90
17240;DHT22;9943;54.378;18.604;2022-12-20T07:15:21;5.00;99.90
17240;DHT22;9943;54.378;18.604;2022-12-20T07:17:51;5.00;99.90
17240;DHT22;9943;54.378;18.604;2022-12-20T07:20:18;5.00;99.90
17240;DHT22;9943;54.378;18.604;2022-12-20T07:22:46;5.00;99.90
17240;DHT22;9943;54.378;18.604;2022-12-20T07:25:14;5.10;99.90
17240;DHT22;9943;54.378;18.604;2022-12-20T07:27:46;5.10;99.90
17240;DHT22;9943;54.378;18.604;2022-12-20T07:30:16;5.10;99.90
17240;DHT22;9943;54.378;18.604;2022-12-20T07:32:47;5.20;99.90
17240;DHT22;9943;54.378;18.604;2022-12-20T07:35:14;5.10;99.90
17240;DHT22;9943;54.378;18.604;2022-12-20T07:37:43;5.10;99.90
17240;DHT22;9943;54.378;18.604;2022-12-20T07:40:11;5.10;99.90
17240;DHT22;9943;54.378;18.604;2022-12-20T07:42:39;5.10;99.90
17240;DHT22;9943;54.378;18.604;2022-12-20T07:45:10;5.10;99.90
17240;DHT22;9943;54.378;18.604;2022-12-20T07:47:38;5.10;99.90
17240;DHT22;9943;54.378;18.604;2022-12-20T07:50:08;5.10;99.90
17240;DHT22;9943;54.378;18.604;2022-12-20T07:52:39;5.10;99.90
17240;DHT22;9943;54.378;18.604;2022-12-20T07:55:10;5.10;99.90
17240;DHT22;9943;54.378;18.604;2022-12-20T07:57:41;5.10;99.90
17240;DHT22;9943;54.378;18.604;2022-12-20T08:00:11;5.10;99.90
17240;DHT22;9943;54.378;18.604;2022-12-20T08:02:42;5.00;99.90
17240;DHT22;9943;54.378;18.604;2022-12-20T08:05:13;5.10;99.90
17240;DHT22;9943;54.378;18.604;2022-12-20T08:07:43;5.10;99.90
17240;DHT22;9943;54.378;18.604;2022-12-20T08:10:14;5.10;99.90
17240;DHT22;9943;54.378;18.604;2022-12-20T08:12:45;5.00;99.90
17240;DHT22;9943;54.378;18.604;2022-12-20T08:15:13;5.00;99.90
17240;DHT22;9943;54.378;18.604;2022-12-20T08:17:44;5.00;99.90
17240;DHT22;9943;54.378;18.604;2022-12-20T08:20:15;5.20;99.90
17240;DHT22;9943;54.378;18.604;2022-12-20T08:22:46;5.20;99.90
17240;DHT22;9943;54.378;18.604;2022-12-20T08:25:16;5.20;99.90
17240;DHT22;9943;54.378;18.604;2022-12-20T08:27:44;5.30;99.90
17240;DHT22;9943;54.378;18.604;2022-12-20T08:30:14;5.30;99.90
17240;DHT22;9943;54.378;18.604;2022-12-20T08:32:43;5.40;99.90
17240;DHT22;9943;54.378;18.604;2022-12-20T08:35:10;5.60;99.90
17240;DHT22;9943;54.378;18.604;2022-12-20T08:37:41;5.50;99.90
17240;DHT22;9943;54.378;18.604;2022-12-20T08:40:10;5.40;99.90
17240;DHT22;9943;54.378;18.604;2022-12-20T08:42:38;5.50;99.90
17240;DHT22;9943;54.378;18.604;2022-12-20T08:45:06;5.50;99.90
17240;DHT22;9943;54.378;18.604;2022-12-20T08:47:36;5.50;99.90
17240;DHT22;9943;54.378;18.604;2022-12-20T08:50:23;5.60;99.90
17240;DHT22;9943;54.378;18.604;2022-12-20T08:52:53;5.60;99.90
17240;DHT22;9943;54.378;18.604;2022-12-20T08:55:21;5.60;99.90
17240;DHT22;9943;54.378;18.604;2022-12-20T08:57:49;5.50;99.90
17240;DHT22;9943;54.378;18.604;2022-12-20T09:00:18;5.50;99.90
17240;DHT22;9943;54.378;18.604;2022-12-20T09:02:48;5.70;99.90
17240;DHT22;9943;54.378;18.604;2022-12-20T09:05:19;5.70;99.90
17240;DHT22;9943;54.378;18.604;2022-12-20T09:07:48;5.70;99.90
17240;DHT22;9943;54.378;18.604;2022-12-20T09:10:17;5.70;99.90
17240;DHT22;9943;54.378;18.604;2022-12-20T09:12:45;5.60;99.90
17240;DHT22;9943;54.378;18.604;2022-12-20T09:15:12;5.70;99.90
17240;DHT22;9943;54.378;18.604;2022-12-20T09:17:40;5.70;99.90
17240;DHT22;9943;54.378;18.604;2022-12-20T09:20:10;5.80;99.90
17240;DHT22;9943;54.378;18.604;2022-12-20T09:22:37;5.70;99.90
17240;DHT22;9943;54.378;18.604;2022-12-20T09:25:06;5.70;99.90
17240;DHT22;9943;54.378;18.604;2022-12-20T09:27:35;5.70;99.90
17240;DHT22;9943;54.378;18.604;2022-12-20T09:30:04;5.80;99.90
17240;DHT22;9943;54.378;18.604;2022-12-20T09:32:32;5.80;99.90
17240;DHT22;9943;54.378;18.604;2022-12-20T09:35:01;5.80;99.90
17240;DHT22;9943;54.378;18.604;2022-12-20T09:37:31;5.70;99.90
17240;DHT22;9943;54.378;18.604;2022-12-20T09:39:59;5.70;99.90
17240;DHT22;9943;54.378;18.604;2022-12-20T09:42:28;5.70;99.90
17240;DHT22;9943;54.378;18.604;2022-12-20T09:45:02;5.70;99.90
17240;DHT22;9943;54.378;18.604;2022-12-20T09:47:32;5.70;99.90
17240;DHT22;9943;54.378;18.604;2022-12-20T09:50:02;5.80;99.90
17240;DHT22;9943;54.378;18.604;2022-12-20T09:52:45;5.80;99.90
17240;DHT22;9943;54.378;18.604;2022-12-20T09:55:21;5.80;99.90
17240;DHT22;9943;54.378;18.604;2022-12-20T09:57:58;5.80;99.90
17240;DHT22;9943;54.378;18.604;2022-12-20T10:00:34;5.80;99.90
17240;DHT22;9943;54.378;18.604;2022-12-20T10:03:03;5.80;99.90
17240;DHT22;9943;54.378;18.604;2022-12-20T10:05:35;5.80;99.90
17240;DHT22;9943;54.378;18.604;2022-12-20T10:08:15;5.60;99.90
17240;DHT22;9943;54.378;18.604;2022-12-20T10:10:53;5.60;99.90
17240;DHT22;9943;54.378;18.604;2022-12-20T10:13:29;5.60;99.90
17240;DHT22;9943;54.378;18.604;2022-12-20T10:16:06;5.50;99.90
17240;DHT22;9943;54.378;18.604;2022-12-20T10:18:51;5.60;99.90
17240;DHT22;9943;54.378;18.604;2022-12-20T10:21:29;5.60;99.90
17240;DHT22;9943;54.378;18.604;2022-12-20T10:24:07;5.60;99.90
17240;DHT22;9943;54.378;18.604;2022-12-20T10:26:39;5.50;99.90
17240;DHT22;9943;54.378;18.604;2022-12-20T10:29:08;5.50;99.90
17240;DHT22;9943;54.378;18.604;2022-12-20T10:31:38;5.40;99.90
17240;DHT22;9943;54.378;18.604;2022-12-20T10:34:06;5.40;99.90
17240;DHT22;9943;54.378;18.604;2022-12-20T10:36:35;5.50;99.90
17240;DHT22;9943;54.378;18.604;2022-12-20T10:39:05;5.60;99.90
17240;DHT22;9943;54.378;18.604;2022-12-20T10:41:46;5.60;99.90
17240;DHT22;9943;54.378;18.604;2022-12-20T10:44:18;5.50;99.90
17240;DHT22;9943;54.378;18.604;2022-12-20T10:46:50;5.60;99.90
17240;DHT22;9943;54.378;18.604;2022-12-20T10:49:27;5.60;99.90
17240;DHT22;9943;54.378;18.604;2022-12-20T10:51:57;5.50;99.90
17240;DHT22;9943;54.378;18.604;2022-12-20T10:54:30;5.50;99.90
17240;DHT22;9943;54.378;18.604;2022-12-20T10:57:00;5.70;99.90
17240;DHT22;9943;54.378;18.604;2022-12-20T10:59:32;5.60;99.90
17240;DHT22;9943;54.378;18.604;2022-12-20T11:02:22;5.60;99.90
17240;DHT22;9943;54.378;18.604;2022-12-20T11:04:57;5.80;99.90
17240;DHT22;9943;54.378;18.604;2022-12-20T11:07:28;6.00;99.90
17240;DHT22;9943;54.378;18.604;2022-12-20T11:09:57;5.90;99.90
17240;DHT22;9943;54.378;18.604;2022-12-20T11:12:26;6.00;99.90
17240;DHT22;9943;54.378;18.604;2022-12-20T11:15:08;6.00;99.90
17240;DHT22;9943;54.378;18.604;2022-12-20T11:17:43;6.10;99.90
17240;DHT22;9943;54.378;18.604;2022-12-20T11:20:24;6.20;99.90
17240;DHT22;9943;54.378;18.604;2022-12-20T11:23:05;6.30;99.90
17240;DHT22;9943;54.378;18.604;2022-12-20T11:25:46;6.20;99.90
17240;DHT22;9943;54.378;18.604;2022-12-20T11:28:39;6.00;99.90
17240;DHT22;9943;54.378;18.604;2022-12-20T11:31:18;6.00;99.90
17240;DHT22;9943;54.378;18.604;2022-12-20T11:34:00;6.00;99.90
17240;DHT22;9943;54.378;18.604;2022-12-20T11:36:42;6.00;99.90
17240;DHT22;9943;54.378;18.604;2022-12-20T11:39:22;6.10;99.90
17240;DHT22;9943;54.378;18.604;2022-12-20T11:41:59;6.20;99.90
17240;DHT22;9943;54.378;18.604;2022-12-20T11:44:44;6.20;99.90
17240;DHT22;9943;54.378;18.604;2022-12-20T11:47:27;6.40;99.90
17240;DHT22;9943;54.378;18.604;2022-12-20T11:50:15;6.30;99.90
17240;DHT22;9943;54.378;18.604;2022-12-20T11:52:47;6.20;99.90
17240;DHT22;9943;54.378;18.604;2022-12-20T11:55:21;6.30;99.90
17240;DHT22;9943;54.378;18.604;2022-12-20T11:57:57;6.30;99.90
17240;DHT22;9943;54.378;18.604;2022-12-20T12:00:28;6.30;99.90
17240;DHT22;9943;54.378;18.604;2022-12-20T12:02:59;6.30;99.90
17240;DHT22;9943;54.378;18.604;2022-12-20T12:05:39;6.30;99.90
17240;DHT22;9943;54.378;18.604;2022-12-20T12:08:17;6.20;99.90
17240;DHT22;9943;54.378;18.604;2022-12-20T12:10:55;6.20;99.90
17240;DHT22;9943;54.378;18.604;2022-12-20T12:13:27;6.20;99.90
17240;DHT22;9943;54.378;18.604;2022-12-20T12:16:02;6.10;99.90
17240;DHT22;9943;54.378;18.604;2022-12-20T12:18:35;6.10;99.90
17240;DHT22;9943;54.378;18.604;2022-12-20T12:21:12;6.20;99.90
17240;DHT22;9943;54.378;18.604;2022-12-20T12:23:48;6.20;99.90
17240;DHT22;9943;54.378;18.604;2022-12-20T12:26:21;6.30;99.90
17240;DHT22;9943;54.378;18.604;2022-12-20T12:28:55;6.20;99.90
17240;DHT22;9943;54.378;18.604;2022-12-20T12:31:27;6.30;99.90
17240;DHT22;9943;54.378;18.604;2022-12-20T12:34:15;6.20;99.90
17240;DHT22;9943;54.378;18.604;2022-12-20T12:37:19;6.30;99.90
17240;DHT22;9943;54.378;18.604;2022-12-20T12:40:21;6.40;99.90
17240;DHT22;9943;54.378;18.604;2022-12-20T12:43:21;6.40;99.90
17240;DHT22;9943;54.378;18.604;2022-12-20T12:45:56;6.40;99.90
17240;DHT22;9943;54.378;18.604;2022-12-20T12:48:31;6.50;99.90
17240;DHT22;9943;54.378;18.604;2022-12-20T12:51:03;6.40;99.90
17240;DHT22;9943;54.378;18.604;2022-12-20T12:53:35;6.50;99.90
17240;DHT22;9943;54.378;18.604;2022-12-20T12:56:29;6.30;99.90
17240;DHT22;9943;54.378;18.604;2022-12-20T12:59:20;6.40;99.90
17240;DHT22;9943;54.378;18.604;2022-12-20T13:01:52;6.50;99.90
17240;DHT22;9943;54.378;18.604;2022-12-20T13:04:26;6.50;99.90
17240;DHT22;9943;54.378;18.604;2022-12-20T13:06:59;6.20;99.90
17240;DHT22;9943;54.378;18.604;2022-12-20T13:09:38;6.20;99.90
17240;DHT22;9943;54.378;18.604;2022-12-20T13:18:32;6.20;99.90
17240;DHT22;9943;54.378;18.604;2022-12-20T13:21:35;6.20;99.90
17240;DHT22;9943;54.378;18.604;2022-12-20T13:24:50;6.20;99.90
17240;DHT22;9943;54.378;18.604;2022-12-20T13:27:32;6.20;99.90
17240;DHT22;9943;54.378;18.604;2022-12-20T13:30:27;6.20;99.90
17240;DHT22;9943;54.378;18.604;2022-12-20T13:33:21;6.30;99.90
17240;DHT22;9943;54.378;18.604;2022-12-20T13:35:58;6.30;99.90
17240;DHT22;9943;54.378;18.604;2022-12-20T13:38:52;6.20;99.90
17240;DHT22;9943;54.378;18.604;2022-12-20T13:41:33;6.30;99.90
17240;DHT22;9943;54.378;18.604;2022-12-20T13:44:17;6.30;99.90
17240;DHT22;9943;54.378;18.604;2022-12-20T13:46:53;6.50;99.90
17240;DHT22;9943;54.378;18.604;2022-12-20T13:49:25;6.50;99.90
17240;DHT22;9943;54.378;18.604;2022-12-20T13:52:15;6.40;99.90
17240;DHT22;9943;54.378;18.604;2022-12-20T13:54:46;6.40;99.90
17240;DHT22;9943;54.378;18.604;2022-12-20T13:57:22;6.30;99.90
17240;DHT22;9943;54.378;18.604;2022-12-20T13:59:56;6.40;99.90
17240;DHT22;9943;54.378;18.604;2022-12-20T14:02:28;6.50;99.90
17240;DHT22;9943;54.378;18.604;2022-12-20T14:05:00;6.50;99.90
17240;DHT22;9943;54.378;18.604;2022-12-20T14:07:31;6.50;99.90
17240;DHT22;9943;54.378;18.604;2022-12-20T14:10:03;6.40;99.90
17240;DHT22;9943;54.378;18.604;2022-12-20T14:12:33;6.40;99.90
17240;DHT22;9943;54.378;18.604;2022-12-20T14:15:17;6.40;99.90
17240;DHT22;9943;54.378;18.604;2022-12-20T14:17:47;6.40;99.90
17240;DHT22;9943;54.378;18.604;2022-12-20T14:20:20;6.40;99.90
17240;DHT22;9943;54.378;18.604;2022-12-20T14:22:55;6.50;99.90
17240;DHT22;9943;54.378;18.604;2022-12-20T14:25:30;6.50;99.90
17240;DHT22;9943;54.378;18.604;2022-12-20T14:28:03;6.50;99.90
17240;DHT22;9943;54.378;18.604;2022-12-20T14:30:35;6.60;99.90
17240;DHT22;9943;54.378;18.604;2022-12-20T14:33:23;6.60;99.90
17240;DHT22;9943;54.378;18.604;2022-12-20T14:35:53;6.60;99.90
17240;DHT22;9943;54.378;18.604;2022-12-20T14:38:23;6.50;99.90
17240;DHT22;9943;54.378;18.604;2022-12-20T14:40:56;6.70;99.90
17240;DHT22;9943;54.378;18.604;2022-12-20T14:43:27;6.70;99.90
17240;DHT22;9943;54.378;18.604;2022-12-20T14:46:16;6.50;99.90
17240;DHT22;9943;54.378;18.604;2022-12-20T14:48:45;6.60;99.90
17240;DHT22;9943;54.378;18.604;2022-12-20T14:51:19;6.50;99.90
17240;DHT22;9943;54.378;18.604;2022-12-20T14:53:50;6.60;99.90
17240;DHT22;9943;54.378;18.604;2022-12-20T14:56:20;6.60;99.90
17240;DHT22;9943;54.378;18.604;2022-12-20T14:59:04;6.70;99.90
17240;DHT22;9943;54.378;18.604;2022-12-20T15:01:33;6.70;99.90
17240;DHT22;9943;54.378;18.604;2022-12-20T15:04:17;6.80;99.90
17240;DHT22;9943;54.378;18.604;2022-12-20T15:06:48;6.80;99.90
17240;DHT22;9943;54.378;18.604;2022-12-20T15:09:19;6.70;99.90
17240;DHT22;9943;54.378;18.604;2022-12-20T15:11:48;6.50;99.90
17240;DHT22;9943;54.378;18.604;2022-12-20T15:14:35;6.40;99.90
17240;DHT22;9943;54.378;18.604;2022-12-20T15:17:09;6.30;99.90
17240;DHT22;9943;54.378;18.604;2022-12-20T15:19:38;6.30;99.90
17240;DHT22;9943;54.378;18.604;2022-12-20T15:22:10;6.30;99.90
17240;DHT22;9943;54.378;18.604;2022-12-20T15:24:40;6.40;99.90
17240;DHT22;9943;54.378;18.604;2022-12-20T15:27:11;6.30;99.90
17240;DHT22;9943;54.378;18.604;2022-12-20T15:29:42;6.30;99.90
17240;DHT22;9943;54.378;18.604;2022-12-20T15:32:16;6.40;99.90
17240;DHT22;9943;54.378;18.604;2022-12-20T15:34:47;6.30;99.90
17240;DHT22;9943;54.378;18.604;2022-12-20T15:37:18;6.40;99.90
17240;DHT22;9943;54.378;18.604;2022-12-20T15:39:47;6.40;99.90
17240;DHT22;9943;54.378;18.604;2022-12-20T15:42:17;6.40;99.90
17240;DHT22;9943;54.378;18.604;2022-12-20T15:44:47;6.50;99.90
17240;DHT22;9943;54.378;18.604;2022-12-20T15:47:16;6.50;99.90
17240;DHT22;9943;54.378;18.604;2022-12-20T15:49:44;6.50;99.90
17240;DHT22;9943;54.378;18.604;2022-12-20T15:52:18;6.40;99.90
17240;DHT22;9943;54.378;18.604;2022-12-20T15:54:48;6.40;99.90
17240;DHT22;9943;54.378;18.604;2022-12-20T15:57:17;6.50;99.90
17240;DHT22;9943;54.378;18.604;2022-12-20T15:59:48;6.40;99.90
17240;DHT22;9943;54.378;18.604;2022-12-20T16:02:20;6.40;99.90
17240;DHT22;9943;54.378;18.604;2022-12-20T16:04:52;6.40;99.90
17240;DHT22;9943;54.378;18.604;2022-12-20T16:07:22;6.30;99.90
17240;DHT22;9943;54.378;18.604;2022-12-20T16:09:50;6.30;99.90
17240;DHT22;9943;54.378;18.604;2022-12-20T16:12:22;6.30;99.90
17240;DHT22;9943;54.378;18.604;2022-12-20T16:14:53;6.40;99.90
17240;DHT22;9943;54.378;18.604;2022-12-20T16:17:24;6.30;99.90
17240;DHT22;9943;54.378;18.604;2022-12-20T16:19:53;6.30;99.90
17240;DHT22;9943;54.378;18.604;2022-12-20T16:22:26;6.30;99.90
17240;DHT22;9943;54.378;18.604;2022-12-20T16:24:57;6.30;99.90